Time;durP1;ratioP1;P1;durP2;ratioP2;P2;SDS_P1;SDS_P2;PMS_P1;PMS_P2;Temp;Humidity;BMP_temperature;BMP_pressure;BME280_temperature;BME280_humidity;BME280_pressure;Samples;Min_cycle;Max_cycle;Signal;HPM_P1;HPM_P2
2022/04/14 00:00:03;;;;;;;9.05;6.20;;;;;;;20.44;33.82;101257.16;1722315;83;20965;-57
2022/04/14 00:02:29;;;;;;;8.30;6.40;;;;;;;20.45;33.82;101260.75;1722532;83;21461;-57
2022/04/14 00:04:56;;;;;;;9.00;6.22;;;;;;;20.44;33.82;101255.78;1721945;83;21962;-57
2022/04/14 00:07:22;;;;;;;10.13;6.60;;;;;;;20.44;33.82;101256.34;1722384;83;21062;-57
2022/04/14 00:09:49;;;;;;;9.43;6.37;;;;;;;20.43;33.82;101251.38;1722190;83;21025;-57
2022/04/14 00:12:15;;;;;;;8.55;6.00;;;;;;;20.43;33.82;101251.38;1721981;83;20996;-57
2022/04/14 00:14:42;;;;;;;9.20;5.70;;;;;;;20.44;33.80;101256.34;1722295;83;21214;-57
2022/04/14 00:17:08;;;;;;;8.50;6.03;;;;;;;20.43;33.82;101251.93;1722406;83;21115;-57
2022/04/14 00:19:35;;;;;;;9.08;6.25;;;;;;;20.43;33.82;101256.90;1721956;83;21650;-57
2022/04/14 00:22:01;;;;;;;9.25;6.03;;;;;;;20.42;33.80;101252.49;1722471;83;20965;-57
2022/04/14 00:24:27;;;;;;;7.90;6.25;;;;;;;20.43;33.77;101253.31;1716026;83;20981;-57
2022/04/14 00:26:54;;;;;;;7.60;5.92;;;;;;;20.42;33.78;101248.91;1706452;84;20937;-57
2022/04/14 00:29:20;;;;;;;7.05;5.83;;;;;;;20.42;33.77;101253.87;1706767;84;21009;-57
2022/04/14 00:31:47;;;;;;;6.55;5.55;;;;;;;20.41;33.79;101246.70;1706917;84;20999;-57
2022/04/14 00:34:13;;;;;;;8.23;6.08;;;;;;;20.41;33.78;101248.08;1706845;84;21387;-57
2022/04/14 00:36:40;;;;;;;10.23;6.03;;;;;;;20.42;33.77;101246.14;1706616;84;21469;-57
2022/04/14 00:39:09;;;;;;;8.20;5.85;;;;;;;20.41;33.77;101248.67;1706451;84;20950;-57
2022/04/14 00:41:35;;;;;;;8.63;5.60;;;;;;;20.40;33.78;101240.94;1741792;81;21756;-57
2022/04/14 00:44:01;;;;;;;9.55;5.95;;;;;;;20.40;33.76;101235.97;1685181;84;21147;-57
2022/04/14 00:46:28;;;;;;;7.37;5.78;;;;;;;20.39;33.77;101233.77;1706475;84;20945;-57
2022/04/14 00:48:54;;;;;;;7.28;5.60;;;;;;;20.39;33.76;101227.41;1706077;84;20985;-57
2022/04/14 00:51:21;;;;;;;7.97;5.83;;;;;;;20.39;33.77;101232.38;1706213;84;21275;-57
2022/04/14 00:53:47;;;;;;;7.37;5.78;;;;;;;20.39;33.78;101232.38;1706236;82;20863;-57
2022/04/14 00:56:14;;;;;;;6.72;5.28;;;;;;;20.39;33.76;101231.56;1706035;84;21171;-57
2022/04/14 00:58:43;;;;;;;6.60;5.17;;;;;;;20.39;33.75;101235.70;1706236;84;20957;-57
2022/04/14 01:01:09;;;;;;;8.20;6.15;;;;;;;20.38;33.75;101232.12;1706586;84;20981;-57
2022/04/14 01:03:36;;;;;;;9.40;5.72;;;;;;;20.39;33.72;101234.33;1706065;84;20950;-57
2022/04/14 01:06:03;;;;;;;9.05;5.70;;;;;;;20.38;33.72;101226.59;1706437;84;21057;-57
2022/04/14 01:08:32;;;;;;;6.83;5.45;;;;;;;20.37;33.73;101233.23;1706297;84;21351;-57
2022/04/14 01:10:58;;;;;;;7.55;5.28;;;;;;;20.37;33.71;101228.27;1741881;81;20934;-57
2022/04/14 01:13:25;;;;;;;7.72;5.70;;;;;;;20.37;33.75;101237.38;1742219;82;21013;-57
2022/04/14 01:15:58;;;;;;;6.95;5.33;;;;;;;20.38;33.75;101236.82;1741986;82;20907;-57
2022/04/14 01:18:24;;;;;;;6.67;5.28;;;;;;;20.37;33.73;101235.17;1741946;81;20981;-57
2022/04/14 01:20:51;;;;;;;6.67;5.20;;;;;;;20.37;33.72;101236.56;1742206;81;20946;-57
2022/04/14 01:23:22;;;;;;;8.53;5.40;;;;;;;20.36;33.71;101236.33;1742061;82;20950;-57
2022/04/14 01:25:50;;;;;;;6.65;5.47;;;;;;;20.36;33.69;101237.15;1752447;81;20965;-57
2022/04/14 01:28:18;;;;;;;6.70;4.95;;;;;;;20.35;33.70;101232.73;1755110;81;20933;-57
2022/04/14 01:30:44;;;;;;;8.18;5.58;;;;;;;20.35;33.70;101237.44;1755507;81;20915;-57
2022/04/14 01:33:10;;;;;;;8.43;5.37;;;;;;;20.35;33.70;101238.83;1755159;81;21175;-57
2022/04/14 01:35:37;;;;;;;9.53;5.85;;;;;;;20.34;33.67;101240.77;1755541;81;21362;-57
2022/04/14 01:38:03;;;;;;;8.58;6.10;;;;;;;20.35;33.66;101238.27;1755358;81;20977;-57
2022/04/14 01:40:30;;;;;;;9.13;5.20;;;;;;;20.34;33.67;101238.00;1755124;81;20898;-57
2022/04/14 01:42:56;;;;;;;6.70;5.20;;;;;;;20.34;33.65;101241.33;1755404;81;20989;-57
2022/04/14 01:45:23;;;;;;;9.45;5.55;;;;;;;20.34;33.66;101240.77;1755323;81;21139;-57
2022/04/14 01:47:49;;;;;;;7.67;5.87;;;;;;;20.34;33.65;101244.91;1754965;81;20978;-57
2022/04/14 01:50:16;;;;;;;7.85;5.47;;;;;;;20.34;33.64;101242.70;1755408;81;20909;-57
2022/04/14 01:52:44;;;;;;;7.10;5.45;;;;;;;20.34;33.64;101246.85;1755220;81;20902;-57
2022/04/14 01:55:11;;;;;;;8.78;5.28;;;;;;;20.33;33.65;101238.30;1755228;81;20949;-57
2022/04/14 01:57:37;;;;;;;9.45;5.80;;;;;;;20.32;33.64;101240.27;1755169;81;21410;-57
2022/04/14 02:00:07;;;;;;;7.08;5.35;;;;;;;20.33;33.65;101238.30;1755434;81;21395;-57
2022/04/14 02:02:33;;;;;;;7.97;4.97;;;;;;;20.31;33.62;101234.48;1755250;80;20984;-57
2022/04/14 02:05:00;;;;;;;7.08;5.35;;;;;;;20.33;33.63;101238.30;1755009;81;21726;-57
2022/04/14 02:07:26;;;;;;;6.50;5.05;;;;;;;20.31;33.63;101233.09;1755562;81;20937;-57
2022/04/14 02:09:52;;;;;;;7.70;5.62;;;;;;;20.31;33.63;101233.66;1755042;81;21105;-57
2022/04/14 02:12:19;;;;;;;7.47;5.40;;;;;;;20.30;33.61;101228.69;1755053;81;20965;-57
2022/04/14 02:14:45;;;;;;;6.65;5.55;;;;;;;20.31;33.59;101232.27;1755127;80;20942;-57
2022/04/14 02:17:12;;;;;;;8.75;5.62;;;;;;;20.31;33.60;101233.09;1755357;81;20977;-57
2022/04/14 02:19:38;;;;;;;6.00;4.58;;;;;;;20.31;33.60;101239.18;1755196;81;21280;-57
2022/04/14 02:22:05;;;;;;;8.23;5.50;;;;;;;20.29;33.59;101238.09;1755491;81;21646;-57
2022/04/14 02:24:31;;;;;;;7.62;5.17;;;;;;;20.29;33.59;101246.38;1753042;81;20950;-57
2022/04/14 02:26:58;;;;;;;7.22;5.03;;;;;;;20.30;33.59;101245.83;1742145;82;20950;-57
2022/04/14 02:29:24;;;;;;;7.58;5.30;;;;;;;20.29;33.58;101241.38;1741988;82;21365;-57
2022/04/14 02:31:53;;;;;;;6.40;4.78;;;;;;;20.29;33.59;101235.86;1741972;82;21540;-57
2022/04/14 02:34:18;;;;;;;8.28;5.65;;;;;;;20.29;33.56;101242.23;1706245;83;21260;-57
2022/04/14 02:36:44;;;;;;;7.83;5.78;;;;;;;20.29;33.58;101242.23;1706306;83;20949;-57
2022/04/14 02:39:11;;;;;;;6.75;5.42;;;;;;;20.29;33.55;101242.23;1706164;84;20962;-57
2022/04/14 02:41:37;;;;;;;7.60;5.15;;;;;;;20.28;33.56;101243.91;1706328;84;21465;-57
2022/04/14 02:44:03;;;;;;;7.33;5.28;;;;;;;20.28;33.54;101247.50;1706412;84;21361;-57
2022/04/14 02:46:29;;;;;;;7.42;5.42;;;;;;;20.28;33.55;101249.44;1706003;84;21627;-57
2022/04/14 02:49:01;;;;;;;7.35;5.75;;;;;;;20.27;33.55;101248.61;1706348;84;20937;-57
2022/04/14 02:51:27;;;;;;;7.08;5.25;;;;;;;20.28;33.56;101252.20;1705887;84;20934;-57
2022/04/14 02:53:53;;;;;;;6.25;4.72;;;;;;;20.28;33.54;101256.34;1706082;84;21033;-57
2022/04/14 02:56:19;;;;;;;7.35;5.17;;;;;;;20.27;33.53;101259.67;1706321;84;21398;-57
2022/04/14 02:58:46;;;;;;;7.08;5.70;;;;;;;20.26;33.53;101255.26;1706442;82;21755;-57
2022/04/14 03:01:12;;;;;;;6.80;5.50;;;;;;;20.27;33.50;101251.94;1705996;84;21358;-57
2022/04/14 03:03:38;;;;;;;8.93;5.85;;;;;;;20.27;33.51;101251.94;1705901;84;20977;-57
2022/04/14 03:06:05;;;;;;;7.28;4.80;;;;;;;20.27;33.49;101256.08;1706183;84;20906;-57
2022/04/14 03:08:31;;;;;;;8.03;5.62;;;;;;;20.25;33.50;101257.75;1705935;84;20980;-57
2022/04/14 03:10:57;;;;;;;7.87;5.10;;;;;;;20.25;33.50;101260.52;1706373;83;21227;-57
2022/04/14 03:13:24;;;;;;;7.10;4.60;;;;;;;20.25;33.49;101256.38;1706104;83;21424;-57
2022/04/14 03:15:51;;;;;;;6.87;4.72;;;;;;;20.25;33.49;101263.28;1705929;84;20906;-57
2022/04/14 03:18:17;;;;;;;6.53;4.95;;;;;;;20.25;33.49;101262.45;1706104;84;20870;-57
2022/04/14 03:20:43;;;;;;;6.45;4.58;;;;;;;20.25;33.48;101262.45;1706276;84;20946;-57
2022/04/14 03:23:11;;;;;;;8.55;4.90;;;;;;;20.24;33.46;101262.22;1706101;84;21745;-57
2022/04/14 03:25:39;;;;;;;9.75;5.50;;;;;;;20.24;33.48;101263.02;1705947;83;21422;-57
2022/04/14 03:28:05;;;;;;;8.03;5.17;;;;;;;20.23;33.50;101266.92;1706397;84;20945;-57
2022/04/14 03:30:31;;;;;;;9.40;5.58;;;;;;;20.23;33.48;101267.48;1706053;84;20950;-57
2022/04/14 03:32:57;;;;;;;6.95;5.45;;;;;;;20.24;33.48;101264.98;1706322;82;20949;-57
2022/04/14 03:35:23;;;;;;;5.97;4.67;;;;;;;20.23;33.48;101263.34;1706231;84;21162;-57
2022/04/14 03:37:50;;;;;;;7.22;5.08;;;;;;;20.23;33.46;101270.25;1705893;84;20941;-57
2022/04/14 03:40:16;;;;;;;7.97;5.50;;;;;;;20.23;33.49;101273.84;1706209;84;20993;-57
2022/04/14 03:42:42;;;;;;;7.67;5.28;;;;;;;20.23;33.46;101271.63;1706145;84;21494;-57
2022/04/14 03:45:09;;;;;;;7.10;5.28;;;;;;;20.23;33.50;101282.68;1706213;84;21370;-57
2022/04/14 03:47:35;;;;;;;8.55;5.20;;;;;;;20.22;33.50;101284.62;1706285;84;21116;-57
2022/04/14 03:50:03;;;;;;;7.05;4.83;;;;;;;20.22;33.45;101283.23;1705858;84;20946;-57
2022/04/14 03:52:29;;;;;;;7.03;4.90;;;;;;;20.22;33.48;101292.91;1705999;84;20965;-57
2022/04/14 03:54:56;;;;;;;6.95;5.37;;;;;;;20.23;33.51;101290.97;1706158;84;21432;-57
2022/04/14 03:57:22;;;;;;;6.85;4.85;;;;;;;20.21;33.49;101283.53;1706228;84;20951;-57
2022/04/14 03:59:54;;;;;;;8.43;4.67;;;;;;;20.22;33.49;101292.09;1705980;84;21353;-57
2022/04/14 04:02:20;;;;;;;7.30;5.45;;;;;;;20.23;33.51;101287.64;1706130;84;20965;-57
2022/04/14 04:04:46;;;;;;;5.60;4.37;;;;;;;20.24;33.56;101289.85;1705491;84;21505;-57
2022/04/14 04:07:12;;;;;;;5.50;4.25;;;;;;;20.25;33.57;101285.94;1704673;84;21329;-57
2022/04/14 04:09:38;;;;;;;6.50;4.83;;;;;;;20.29;33.55;101293.88;1704541;84;20914;-57
2022/04/14 04:12:07;;;;;;;5.80;4.40;;;;;;;20.31;33.55;101292.50;1704450;84;21441;-57
2022/04/14 04:14:33;;;;;;;6.62;4.80;;;;;;;20.36;33.54;101291.59;1704004;84;21040;-57
2022/04/14 04:16:59;;;;;;;8.28;4.87;;;;;;;20.42;33.51;101290.36;1702616;84;20938;-57
2022/04/14 04:19:25;;;;;;;6.47;4.78;;;;;;;20.48;33.46;101295.50;1728727;82;21000;-57
2022/04/14 04:21:51;;;;;;;6.97;4.08;;;;;;;20.56;33.42;101301.44;1729418;82;21175;-57
2022/04/14 04:24:17;;;;;;;6.45;4.22;;;;;;;20.62;33.33;101303.00;1731882;81;21665;-57
2022/04/14 04:26:43;;;;;;;6.87;4.87;;;;;;;20.70;33.28;101303.11;1739754;81;20902;-59
2022/04/14 04:29:16;;;;;;;5.40;4.80;;;;;;;20.77;33.20;101307.66;1739586;82;21315;-59
2022/04/14 04:31:42;;;;;;;5.42;4.10;;;;;;;20.85;33.15;101308.33;1741138;81;21023;-58
2022/04/14 04:34:08;;;;;;;7.03;4.62;;;;;;;20.94;33.07;101305.66;1740913;82;21098;-58
2022/04/14 04:36:34;;;;;;;7.83;4.78;;;;;;;21.02;33.01;101316.00;1740605;81;21323;-58
2022/04/14 04:39:01;;;;;;;8.25;4.95;;;;;;;21.08;32.94;101311.20;1740925;82;21364;-58
2022/04/14 04:41:28;;;;;;;6.62;4.50;;;;;;;21.15;32.90;101319.92;1756567;80;21083;-58
2022/04/14 04:43:54;;;;;;;7.17;5.00;;;;;;;21.21;32.86;101322.84;1776998;80;21064;-58
2022/04/14 04:46:20;;;;;;;12.18;5.55;;;;;;;21.26;32.81;101319.39;1777732;80;20965;-58
2022/04/14 04:48:46;;;;;;;8.90;5.78;;;;;;;21.31;32.74;101320.66;1735520;81;21835;-58
2022/04/14 04:51:12;;;;;;;10.35;5.60;;;;;;;21.34;32.71;101320.63;1728910;80;21349;-58
2022/04/14 04:53:39;;;;;;;9.80;6.35;;;;;;;21.39;32.72;101321.87;1721373;81;21453;-58
2022/04/14 04:56:05;;;;;;;11.48;6.50;;;;;;;21.42;32.67;101332.35;1721044;81;21002;-58
2022/04/14 04:58:31;;;;;;;11.85;6.33;;;;;;;21.45;32.63;101327.56;1723076;81;21422;-58
2022/04/14 05:01:03;;;;;;;10.75;6.87;;;;;;;21.48;32.62;101330.27;1719006;81;21207;-58
2022/04/14 05:03:29;;;;;;;11.55;6.60;;;;;;;21.49;32.62;101327.20;1705194;82;21995;-58
2022/04/14 05:05:55;;;;;;;10.15;7.10;;;;;;;21.52;32.59;101330.72;1734578;80;21001;-58
2022/04/14 05:08:21;;;;;;;14.58;7.40;;;;;;;21.53;32.56;101326.83;1727836;81;20906;-58
2022/04/14 05:10:47;;;;;;;13.88;7.12;;;;;;;21.55;32.57;101332.89;1731102;80;21694;-57
2022/04/14 05:13:15;;;;;;;14.00;7.22;;;;;;;21.57;32.58;101336.15;1729380;81;21355;-58
2022/04/14 05:15:42;;;;;;;11.93;8.13;;;;;;;21.60;32.57;101337.50;1726216;80;21027;-58
2022/04/14 05:18:09;;;;;;;15.25;8.38;;;;;;;21.61;32.57;101337.16;1731709;80;21001;-57
2022/04/14 05:20:35;;;;;;;14.87;9.70;;;;;;;21.62;32.57;101340.19;1735190;81;21037;-57
2022/04/14 05:23:05;;;;;;;23.40;9.73;;;;;;;21.64;32.56;101344.84;1737205;82;21043;-57
2022/04/14 05:25:31;;;;;;;19.23;11.80;;;;;;;21.67;32.53;101347.56;1732526;81;22965;-57
2022/04/14 05:27:57;;;;;;;23.55;11.93;;;;;;;21.66;32.51;101348.13;1736507;81;20976;-57
2022/04/14 05:30:24;;;;;;;21.00;11.60;;;;;;;21.67;32.50;101351.16;1737728;82;22113;-58
2022/04/14 05:32:50;;;;;;;23.70;14.13;;;;;;;21.69;32.52;101350.83;1734145;80;20963;-58
2022/04/14 05:35:16;;;;;;;25.85;13.60;;;;;;;21.70;32.52;101358.02;1730884;80;22005;-57
2022/04/14 05:37:43;;;;;;;23.42;12.90;;;;;;;21.70;32.51;101356.63;1739730;80;21107;-58
2022/04/14 05:40:10;;;;;;;22.52;15.38;;;;;;;21.71;32.52;101356.33;1728929;80;20927;-58
2022/04/14 05:42:36;;;;;;;23.07;15.85;;;;;;;21.73;32.52;101358.20;1733875;81;22294;-59
2022/04/14 05:45:02;;;;;;;19.27;13.98;;;;;;;21.75;32.56;101357.34;1734333;80;20876;-58
2022/04/14 05:47:28;;;;;;;22.60;13.90;;;;;;;21.77;32.58;101357.83;1738726;81;20975;-58
2022/04/14 05:50:00;;;;;;;26.40;17.00;;;;;;;21.78;32.66;101362.81;1730244;80;21249;-58
2022/04/14 05:52:26;;;;;;;30.70;18.15;;;;;;;21.79;32.68;101359.73;1729396;81;22000;-58
2022/04/14 05:54:52;;;;;;;24.92;16.60;;;;;;;21.79;32.71;101352.81;1726906;81;21973;-59
2022/04/14 05:57:22;;;;;;;30.37;16.80;;;;;;;21.81;32.71;101362.21;1737707;80;20870;-59
2022/04/14 05:59:46;;;;;;;25.82;15.85;;;;;;;21.82;32.79;101354.12;1730343;81;21086;-59
2022/04/14 06:02:12;;;;;;;26.70;15.10;;;;;;;21.86;32.87;101366.22;1727923;82;21567;-59
2022/04/14 06:04:39;;;;;;;33.40;16.65;;;;;;;21.87;32.93;101364.53;1732792;81;21075;-59
2022/04/14 06:07:05;;;;;;;30.05;16.80;;;;;;;21.89;33.01;101364.23;1723832;81;21405;-58
2022/04/14 06:09:31;;;;;;;30.68;16.87;;;;;;;21.91;33.07;101359.74;1715751;82;20943;-58
2022/04/14 06:11:57;;;;;;;27.95;15.95;;;;;;;21.93;33.16;101366.66;1734994;80;20949;-59
2022/04/14 06:14:24;;;;;;;28.32;16.50;;;;;;;21.95;33.25;101367.71;1738556;80;21111;-57
2022/04/14 06:16:51;;;;;;;40.35;23.20;;;;;;;21.95;33.31;101367.71;1730351;81;21009;-58
2022/04/14 06:19:17;;;;;;;35.40;21.23;;;;;;;21.98;33.37;101375.42;1731403;81;20946;-58
2022/04/14 06:21:43;;;;;;;36.93;27.05;;;;;;;22.01;33.38;101374.78;1732453;80;21408;-58
2022/04/14 06:24:09;;;;;;;39.70;24.25;;;;;;;22.00;33.36;101370.36;1729568;80;21018;-58
2022/04/14 06:26:35;;;;;;;35.50;23.45;;;;;;;22.00;33.39;101372.58;1727284;80;21173;-58
2022/04/14 06:29:02;;;;;;;34.25;22.35;;;;;;;22.01;33.41;101370.06;1729958;80;21482;-60
2022/04/14 06:31:28;;;;;;;36.13;22.32;;;;;;;22.03;33.38;101371.11;1714824;80;20941;-61
2022/04/14 06:33:54;;;;;;;42.67;24.23;;;;;;;22.03;33.42;101366.40;1732518;80;20891;-60
2022/04/14 06:36:20;;;;;;;43.75;26.20;;;;;;;22.05;33.43;101370.25;1728152;80;21058;-60
2022/04/14 06:38:47;;;;;;;46.00;27.13;;;;;;;22.06;33.43;101371.33;1734296;80;21114;-61
2022/04/14 06:41:13;;;;;;;38.85;25.90;;;;;;;22.06;33.45;101376.05;1717588;81;20950;-60
2022/04/14 06:43:39;;;;;;;35.17;24.72;;;;;;;22.08;33.44;101374.59;1719660;81;22065;-60
2022/04/14 06:46:05;;;;;;;39.25;24.02;;;;;;;22.09;33.45;101374.03;1718929;81;20904;-60
2022/04/14 06:48:31;;;;;;;38.35;22.93;;;;;;;22.09;33.43;101372.65;1721423;80;21146;-62
2022/04/14 06:50:59;;;;;;;39.83;23.52;;;;;;;22.11;33.51;101379.50;1720991;81;21077;-61
2022/04/14 06:53:31;;;;;;;43.85;23.90;;;;;;;22.10;33.58;101373.73;1735211;80;20887;-62
2022/04/14 06:55:57;;;;;;;43.95;23.22;;;;;;;22.11;33.67;101373.95;1748554;81;20942;-61
2022/04/14 06:58:23;;;;;;;41.30;22.55;;;;;;;22.10;33.78;101377.88;1733550;81;20988;-61
2022/04/14 07:00:49;;;;;;;49.50;22.00;;;;;;;22.12;33.91;101376.17;1727098;80;20993;-62
2022/04/14 07:03:15;;;;;;;37.65;20.32;;;;;;;22.13;34.01;101377.25;1724857;81;21340;-61
2022/04/14 07:05:42;;;;;;;43.48;20.57;;;;;;;22.15;34.14;101384.66;1717722;81;21021;-62
2022/04/14 07:08:08;;;;;;;44.83;20.08;;;;;;;22.17;34.20;101378.82;1730000;80;21040;-61
2022/04/14 07:10:34;;;;;;;40.48;19.73;;;;;;;22.18;34.27;101379.08;1719990;81;21453;-61
2022/04/14 07:13:00;;;;;;;38.80;20.00;;;;;;;22.18;34.31;101375.74;1754843;81;21069;-61
2022/04/14 07:15:26;;;;;;;44.67;21.33;;;;;;;22.20;34.37;101382.34;1743721;81;22325;-62
2022/04/14 07:17:52;;;;;;;38.75;20.10;;;;;;;22.20;34.44;101383.16;1738507;80;21014;-62
2022/04/14 07:20:19;;;;;;;38.35;20.50;;;;;;;22.22;34.49;101370.39;1731894;81;21049;-62
2022/04/14 07:22:50;;;;;;;39.65;20.10;;;;;;;22.22;34.49;101373.98;1741351;80;21171;-62
2022/04/14 07:25:17;;;;;;;47.83;20.40;;;;;;;22.23;34.49;101374.80;1744072;80;21073;-62
2022/04/14 07:27:44;;;;;;;36.95;20.85;;;;;;;22.24;34.50;101370.31;1748629;80;21972;-65
2022/04/14 07:30:12;;;;;;;40.80;20.60;;;;;;;22.26;34.50;101374.16;1743036;80;21057;-62
2022/04/14 07:32:40;;;;;;;37.88;20.68;;;;;;;22.27;34.49;101370.27;1735807;81;21331;-62
2022/04/14 07:35:07;;;;;;;39.48;20.48;;;;;;;22.26;34.48;101373.60;1741967;80;21000;-61
2022/04/14 07:37:36;;;;;;;38.28;21.05;;;;;;;22.26;34.48;101374.98;1741792;81;20953;-63
2022/04/14 07:40:04;;;;;;;34.40;20.70;;;;;;;;;;1741622;80;21601;-63
2022/04/14 07:42:40;;;;;;;33.85;18.87;;;;;;;22.27;34.44;101374.42;1735249;81;21043;-63
2022/04/14 07:45:08;;;;;;;29.87;18.95;;;;;;;22.27;34.41;101378.58;1734399;80;20943;-62
2022/04/14 07:47:41;;;;;;;41.05;21.05;;;;;;;22.28;34.36;101375.47;1741442;80;20963;-63
2022/04/14 07:50:10;;;;;;;43.63;20.37;;;;;;;22.31;34.41;101381.80;1738062;80;20966;-63
2022/04/14 07:52:51;;;;;;;45.63;19.32;;;;;;;22.32;34.49;101376.48;1734086;81;21113;-60
2022/04/14 07:55:27;;;;;;;44.38;19.23;;;;;;;22.35;34.66;101381.98;1733794;80;20906;-60
2022/04/14 07:57:55;;;;;;;39.38;18.07;;;;;;;22.36;34.79;101385.57;1746345;80;20886;-60
2022/04/14 08:00:23;;;;;;;44.00;19.00;;;;;;;22.38;34.86;101390.22;1738271;80;20957;-60
2022/04/14 08:02:58;;;;;;;42.40;17.95;;;;;;;22.40;34.93;101392.95;1731929;81;21296;-59
2022/04/14 08:05:41;;;;;;;40.88;17.60;;;;;;;22.41;34.99;101382.09;1736397;81;21138;-62
2022/04/14 08:08:10;;;;;;;37.85;16.60;;;;;;;22.42;35.11;101392.05;1716080;81;21213;-61
2022/04/14 08:10:37;;;;;;;46.10;16.48;;;;;;;22.43;35.22;101379.83;1720229;81;21043;-61
2022/04/14 08:13:04;;;;;;;36.03;16.85;;;;;;;22.44;35.35;101380.09;1740817;81;20970;-61
2022/04/14 08:15:30;;;;;;;41.60;17.35;;;;;;;22.45;35.40;101384.48;1728835;81;21084;-61
2022/04/14 08:17:57;;;;;;;33.20;16.05;;;;;;;22.48;35.45;101392.19;1720823;80;21419;-61
2022/04/14 08:20:26;;;;;;;37.38;16.87;;;;;;;22.50;35.50;101390.45;1736077;80;21469;-61
2022/04/14 08:23:00;;;;;;;38.25;15.38;;;;;;;22.52;35.52;101390.41;1734905;81;21236;-61
2022/04/14 08:25:35;;;;;;;37.40;15.35;;;;;;;22.54;35.59;101395.63;1727667;81;20945;-61
2022/04/14 08:28:09;;;;;;;33.25;14.70;;;;;;;22.55;35.61;101395.87;1726864;81;21106;-61
2022/04/14 08:30:36;;;;;;;34.25;15.70;;;;;;;22.56;35.57;101393.37;1718518;81;22240;-61
2022/04/14 08:33:07;;;;;;;40.15;14.78;;;;;;;22.56;35.57;101394.19;1729812;81;20979;-61
2022/04/14 08:35:34;;;;;;;33.85;14.53;;;;;;;22.57;35.56;101390.29;1733898;81;21069;-61
2022/04/14 08:38:06;;;;;;;35.30;13.85;;;;;;;22.58;35.48;101389.69;1725829;81;21045;-61
2022/04/14 08:40:36;;;;;;;39.03;13.78;;;;;;;22.59;35.40;101392.16;1734801;80;21386;-60
2022/04/14 08:43:09;;;;;;;36.50;14.65;;;;;;;22.61;35.25;101391.85;1729099;81;21257;-61
2022/04/14 08:45:41;;;;;;;44.70;13.98;;;;;;;22.61;35.16;101378.81;1730799;81;20899;-61
2022/04/14 08:48:07;;;;;;;41.55;13.05;;;;;;;22.63;34.99;101384.02;1729363;81;20926;-61
2022/04/14 08:50:33;;;;;;;41.53;12.58;;;;;;;22.65;34.84;101384.53;1726683;80;20928;-60
2022/04/14 08:53:00;;;;;;;34.25;11.20;;;;;;;22.66;34.64;101379.25;1731339;80;20887;-61
2022/04/14 08:55:26;;;;;;;31.20;10.18;;;;;;;22.70;34.59;101379.69;1730046;81;21158;-61
2022/04/14 08:57:52;;;;;;;33.20;9.35;;;;;;;22.71;34.50;101386.05;1732623;80;21702;-62
2022/04/14 09:00:19;;;;;;;30.05;10.65;;;;;;;22.72;34.43;101376.60;1730887;80;21056;-62
2022/04/14 09:02:46;;;;;;;24.52;9.93;;;;;;;22.73;34.37;101374.91;1717864;80;21275;-60
2022/04/14 09:05:18;;;;;;;36.73;9.93;;;;;;;22.74;34.31;101375.73;1733545;80;20945;-60
2022/04/14 09:07:49;;;;;;;23.18;8.53;;;;;;;22.74;34.25;101368.80;1721692;81;20971;-60
2022/04/14 09:10:15;;;;;;;30.88;8.93;;;;;;;22.75;34.13;101371.23;1731014;80;20987;-60
2022/04/14 09:12:41;;;;;;;33.23;9.63;;;;;;;22.76;34.10;101374.83;1731986;82;21044;-59
2022/04/14 09:15:09;;;;;;;31.12;9.28;;;;;;;22.75;34.08;101369.02;1737618;82;20955;-59
2022/04/14 09:17:36;;;;;;;23.52;8.73;;;;;;;22.73;34.10;101364.38;1738155;80;20922;-59
2022/04/14 09:20:33;;;;;;;28.40;8.90;;;;;;;22.72;34.11;101359.39;1732740;81;21242;-60
2022/04/14 09:23:23;;;;;;;22.40;8.85;;;;;;;22.71;34.17;101367.45;1698829;84;21068;-59
2022/04/14 09:25:53;;;;;;;27.10;7.97;;;;;;;22.68;34.20;101363.09;1692373;84;21098;-60
2022/04/14 09:28:22;;;;;;;25.15;10.82;;;;;;;22.64;34.22;101352.37;1720814;81;20973;-59
2022/04/14 09:31:07;;;;;;;24.18;9.40;;;;;;;22.63;34.19;101354.89;1712701;80;21021;-59
2022/04/14 09:33:36;;;;;;;31.90;10.48;;;;;;;22.60;34.17;101353.59;1713713;82;21055;-59
2022/04/14 09:36:13;;;;;;;20.72;9.30;;;;;;;22.55;34.18;101345.41;1719316;80;20992;-60
2022/04/14 09:39:01;;;;;;;22.73;9.33;;;;;;;22.53;34.26;101347.66;1716138;82;21062;-59
2022/04/14 09:41:37;;;;;;;15.70;8.15;;;;;;;22.52;34.31;101348.81;1706217;82;21008;-58
2022/04/14 09:44:08;;;;;;;23.18;8.33;;;;;;;22.50;34.35;101339.98;1723957;80;20960;-60
2022/04/14 09:46:35;;;;;;;20.68;9.03;;;;;;;22.47;34.36;101339.24;1735036;80;21103;-58
2022/04/14 09:49:19;;;;;;;18.07;8.65;;;;;;;22.43;34.40;101338.80;1746342;80;21244;-59
2022/04/14 09:51:48;;;;;;;21.50;9.05;;;;;;;22.42;34.47;101336.59;1741443;81;21070;-60
2022/04/14 09:54:18;;;;;;;;;;;;;;;22.39;34.48;101337.23;1754241;80;20977;-59
2022/04/14 09:56:48;;;;;;;23.33;6.40;;;;;;;22.38;34.73;101336.98;1727325;80;20227;-60
2022/04/14 09:59:23;;;;;;;18.92;7.12;;;;;;;22.39;34.90;101329.48;1758221;80;21831;-60
2022/04/14 10:01:52;;;;;;;17.57;6.17;;;;;;;22.40;35.11;101330.56;1737271;82;20941;-61
2022/04/14 10:04:29;;;;;;;14.65;7.17;;;;;;;22.40;35.05;101323.64;1704971;83;21311;-59
2022/04/14 10:07:04;;;;;;;23.80;7.00;;;;;;;22.38;35.00;101320.34;1738495;82;21002;-59
2022/04/14 10:09:31;;;;;;;26.73;6.65;;;;;;;22.35;34.87;101325.15;1740514;80;21024;-61
2022/04/14 10:12:04;;;;;;;26.02;7.80;;;;;;;22.33;34.78;101326.02;1734087;80;21113;-63
2022/04/14 10:14:30;;;;;;;18.35;6.70;;;;;;;22.30;34.63;101324.70;1740469;80;20957;-62
2022/04/14 10:16:59;;;;;;;24.32;6.92;;;;;;;22.26;34.57;101316.78;1738959;80;20993;-62
2022/04/14 10:19:24;;;;;;;21.68;6.87;;;;;;;22.25;34.57;101311.54;1728020;80;21122;-62
2022/04/14 10:21:51;;;;;;;18.65;7.40;;;;;;;22.22;34.54;101305.25;1728497;80;21032;-61
2022/04/14 10:24:18;;;;;;;16.35;6.97;;;;;;;22.20;34.57;101304.73;1731666;81;21486;-62
2022/04/14 10:26:45;;;;;;;24.77;7.62;;;;;;;22.16;34.60;101308.71;1736823;81;20996;-62
2022/04/14 10:29:12;;;;;;;19.98;7.97;;;;;;;22.16;34.61;101309.28;1718316;81;21413;-62
2022/04/14 10:31:44;;;;;;;17.50;8.03;;;;;;;22.15;34.68;101311.82;1741100;80;20999;-61
2022/04/14 10:34:11;;;;;;;16.55;7.12;;;;;;;22.14;34.61;101314.33;1695479;82;21043;-62
2022/04/14 10:36:38;;;;;;;19.92;7.92;;;;;;;22.12;34.59;101299.95;1722901;80;22114;-63
2022/04/14 10:39:05;;;;;;;17.82;7.15;;;;;;;22.10;34.74;101301.68;1743381;81;21028;-60
2022/04/14 10:41:34;;;;;;;18.65;7.92;;;;;;;22.11;34.78;101308.01;1747205;81;21259;-61
2022/04/14 10:44:01;;;;;;;21.10;8.90;;;;;;;22.08;34.85;101302.55;1741739;80;21526;-61
2022/04/14 10:46:32;;;;;;;15.78;7.95;;;;;;;22.08;34.86;101315.02;1742681;81;21116;-61
2022/04/14 10:49:23;;;;;;;21.00;7.55;;;;;;;22.06;34.81;101310.94;1714471;81;21119;-62
2022/04/14 10:51:51;;;;;;;15.23;6.85;;;;;;;22.05;35.00;101320.38;1710264;82;21442;-61
2022/04/14 10:54:19;;;;;;;19.52;6.97;;;;;;;22.05;34.67;101305.14;1658686;83;21680;-59
2022/04/14 10:56:47;;;;;;;17.80;6.03;;;;;;;22.03;34.38;101308.21;1734954;80;22153;-61
2022/04/14 10:59:17;;;;;;;17.27;5.30;;;;;;;22.01;34.09;101304.95;1732536;80;21068;-59
2022/04/14 11:01:51;;;;;;;21.82;5.33;;;;;;;21.99;33.73;101308.59;1736443;81;21073;-59
2022/04/14 11:04:43;;;;;;;16.32;5.62;;;;;;;21.99;33.50;101305.81;1736852;80;20937;-58
2022/04/14 11:07:16;;;;;;;17.12;6.20;;;;;;;21.97;33.67;101307.28;1726684;80;20945;-57
2022/04/14 11:09:57;;;;;;;17.55;5.97;;;;;;;21.99;33.82;101309.16;1726890;80;21409;-60
2022/04/14 11:12:50;;;;;;;17.40;6.33;;;;;;;21.99;33.95;101305.00;1740768;80;22096;-59
2022/04/14 11:15:31;;;;;;;11.90;5.53;;;;;;;21.98;34.05;101300.61;1732395;80;21131;-61
2022/04/14 11:18:07;;;;;;;13.53;6.35;;;;;;;21.98;34.07;101297.84;1719925;80;21234;-61
2022/04/14 11:20:44;;;;;;;14.55;5.25;;;;;;;21.95;34.05;101291.52;1707621;83;20905;-58
2022/04/14 11:23:21;;;;;;;12.03;5.50;;;;;;;21.94;34.01;101292.09;1747834;80;20910;-58